sensor_id;sensor_type;location;lat;lon;timestamp;P1;durP1;ratioP1;P2;durP2;ratioP2
20982;SDS011;10650;51.528;6.748;2023-06-24T00:00:40;15.48;;;13.82;;
20982;SDS011;10650;51.528;6.748;2023-06-24T00:03:08;14.13;;;12.82;;
20982;SDS011;10650;51.528;6.748;2023-06-24T00:05:35;14.18;;;12.77;;
20982;SDS011;10650;51.528;6.748;2023-06-24T00:08:06;14.10;;;12.60;;
20982;SDS011;10650;51.528;6.748;2023-06-24T00:10:35;13.02;;;11.73;;
20982;SDS011;10650;51.528;6.748;2023-06-24T00:13:03;13.82;;;12.45;;
20982;SDS011;10650;51.528;6.748;2023-06-24T00:15:31;13.32;;;12.02;;
20982;SDS011;10650;51.528;6.748;2023-06-24T00:17:59;12.85;;;11.70;;
20982;SDS011;10650;51.528;6.748;2023-06-24T00:20:32;13.07;;;11.65;;
20982;SDS011;10650;51.528;6.748;2023-06-24T00:23:01;14.45;;;13.05;;
20982;SDS011;10650;51.528;6.748;2023-06-24T00:25:29;15.18;;;13.50;;
20982;SDS011;10650;51.528;6.748;2023-06-24T00:27:59;15.45;;;13.95;;
20982;SDS011;10650;51.528;6.748;2023-06-24T00:30:27;15.45;;;13.90;;
20982;SDS011;10650;51.528;6.748;2023-06-24T00:32:54;15.23;;;13.75;;
20982;SDS011;10650;51.528;6.748;2023-06-24T00:35:22;14.60;;;13.10;;
20982;SDS011;10650;51.528;6.748;2023-06-24T00:37:50;15.57;;;13.77;;
20982;SDS011;10650;51.528;6.748;2023-06-24T00:40:24;18.40;;;15.35;;
20982;SDS011;10650;51.528;6.748;2023-06-24T00:42:52;16.58;;;14.82;;
20982;SDS011;10650;51.528;6.748;2023-06-24T00:45:22;19.40;;;14.40;;
20982;SDS011;10650;51.528;6.748;2023-06-24T00:47:49;17.25;;;14.82;;
20982;SDS011;10650;51.528;6.748;2023-06-24T00:50:17;15.25;;;13.57;;
20982;SDS011;10650;51.528;6.748;2023-06-24T00:52:45;17.83;;;13.95;;
20982;SDS011;10650;51.528;6.748;2023-06-24T00:55:14;18.63;;;15.55;;
20982;SDS011;10650;51.528;6.748;2023-06-24T00:57:43;18.27;;;16.15;;
20982;SDS011;10650;51.528;6.748;2023-06-24T01:00:12;20.08;;;15.10;;
20982;SDS011;10650;51.528;6.748;2023-06-24T01:02:43;18.02;;;14.35;;
20982;SDS011;10650;51.528;6.748;2023-06-24T01:05:11;15.02;;;13.40;;
20982;SDS011;10650;51.528;6.748;2023-06-24T01:07:39;16.48;;;13.98;;
20982;SDS011;10650;51.528;6.748;2023-06-24T01:10:08;16.70;;;13.27;;
20982;SDS011;10650;51.528;6.748;2023-06-24T01:12:39;15.80;;;13.25;;
20982;SDS011;10650;51.528;6.748;2023-06-24T01:15:10;12.02;;;10.77;;
20982;SDS011;10650;51.528;6.748;2023-06-24T01:17:39;14.18;;;12.68;;
20982;SDS011;10650;51.528;6.748;2023-06-24T01:20:18;14.63;;;13.13;;
20982;SDS011;10650;51.528;6.748;2023-06-24T01:23:11;15.35;;;13.73;;
20982;SDS011;10650;51.528;6.748;2023-06-24T01:25:57;14.82;;;12.15;;
20982;SDS011;10650;51.528;6.748;2023-06-24T01:28:49;13.45;;;12.15;;
20982;SDS011;10650;51.528;6.748;2023-06-24T01:31:39;13.55;;;12.15;;
20982;SDS011;10650;51.528;6.748;2023-06-24T01:34:17;14.70;;;13.15;;
20982;SDS011;10650;51.528;6.748;2023-06-24T01:36:55;13.38;;;12.10;;
20982;SDS011;10650;51.528;6.748;2023-06-24T01:39:29;14.10;;;11.88;;
20982;SDS011;10650;51.528;6.748;2023-06-24T01:42:03;12.52;;;10.90;;
20982;SDS011;10650;51.528;6.748;2023-06-24T01:44:37;14.27;;;12.77;;
20982;SDS011;10650;51.528;6.748;2023-06-24T01:47:08;14.27;;;12.88;;
20982;SDS011;10650;51.528;6.748;2023-06-24T01:49:39;14.30;;;12.80;;
20982;SDS011;10650;51.528;6.748;2023-06-24T01:52:08;14.50;;;13.15;;
20982;SDS011;10650;51.528;6.748;2023-06-24T01:54:38;13.55;;;12.25;;
20982;SDS011;10650;51.528;6.748;2023-06-24T01:57:09;11.83;;;10.73;;
20982;SDS011;10650;51.528;6.748;2023-06-24T01:59:39;13.50;;;11.90;;
20982;SDS011;10650;51.528;6.748;2023-06-24T02:02:11;14.60;;;13.10;;
20982;SDS011;10650;51.528;6.748;2023-06-24T02:04:39;14.75;;;11.90;;
20982;SDS011;10650;51.528;6.748;2023-06-24T02:07:08;14.75;;;13.25;;
20982;SDS011;10650;51.528;6.748;2023-06-24T02:09:36;15.13;;;13.63;;
20982;SDS011;10650;51.528;6.748;2023-06-24T02:12:06;15.07;;;13.45;;
20982;SDS011;10650;51.528;6.748;2023-06-24T02:14:35;15.57;;;14.07;;
20982;SDS011;10650;51.528;6.748;2023-06-24T02:17:04;15.85;;;13.43;;
20982;SDS011;10650;51.528;6.748;2023-06-24T02:19:38;13.57;;;12.18;;
20982;SDS011;10650;51.528;6.748;2023-06-24T02:22:06;14.60;;;13.13;;
20982;SDS011;10650;51.528;6.748;2023-06-24T02:24:36;14.32;;;12.82;;
20982;SDS011;10650;51.528;6.748;2023-06-24T02:27:06;15.73;;;13.85;;
20982;SDS011;10650;51.528;6.748;2023-06-24T02:29:34;14.02;;;11.40;;
20982;SDS011;10650;51.528;6.748;2023-06-24T02:32:04;13.82;;;12.43;;
20982;SDS011;10650;51.528;6.748;2023-06-24T02:34:33;15.52;;;13.85;;
20982;SDS011;10650;51.528;6.748;2023-06-24T02:37:02;15.65;;;14.13;;
20982;SDS011;10650;51.528;6.748;2023-06-24T02:39:30;15.70;;;13.63;;
20982;SDS011;10650;51.528;6.748;2023-06-24T02:41:58;14.77;;;13.07;;
20982;SDS011;10650;51.528;6.748;2023-06-24T02:44:25;15.30;;;13.80;;
20982;SDS011;10650;51.528;6.748;2023-06-24T02:46:53;14.63;;;13.05;;
20982;SDS011;10650;51.528;6.748;2023-06-24T02:49:23;15.93;;;14.18;;
20982;SDS011;10650;51.528;6.748;2023-06-24T02:51:51;15.35;;;13.75;;
20982;SDS011;10650;51.528;6.748;2023-06-24T02:54:20;13.73;;;12.32;;
20982;SDS011;10650;51.528;6.748;2023-06-24T02:56:48;16.30;;;14.60;;
20982;SDS011;10650;51.528;6.748;2023-06-24T02:59:16;14.63;;;12.55;;
20982;SDS011;10650;51.528;6.748;2023-06-24T03:01:48;14.95;;;12.85;;
20982;SDS011;10650;51.528;6.748;2023-06-24T03:04:17;15.10;;;12.38;;
20982;SDS011;10650;51.528;6.748;2023-06-24T03:06:46;14.80;;;13.27;;
20982;SDS011;10650;51.528;6.748;2023-06-24T03:09:15;15.25;;;13.65;;
20982;SDS011;10650;51.528;6.748;2023-06-24T03:11:45;15.57;;;13.98;;
20982;SDS011;10650;51.528;6.748;2023-06-24T03:14:13;16.13;;;13.15;;
20982;SDS011;10650;51.528;6.748;2023-06-24T03:16:41;14.95;;;13.35;;
20982;SDS011;10650;51.528;6.748;2023-06-24T03:19:08;14.98;;;13.23;;
20982;SDS011;10650;51.528;6.748;2023-06-24T03:21:36;15.02;;;13.48;;
20982;SDS011;10650;51.528;6.748;2023-06-24T03:24:04;14.80;;;13.30;;
20982;SDS011;10650;51.528;6.748;2023-06-24T03:26:32;14.75;;;13.00;;
20982;SDS011;10650;51.528;6.748;2023-06-24T03:29:02;15.43;;;13.35;;
20982;SDS011;10650;51.528;6.748;2023-06-24T03:31:30;18.08;;;13.98;;
20982;SDS011;10650;51.528;6.748;2023-06-24T03:33:58;14.98;;;13.43;;
20982;SDS011;10650;51.528;6.748;2023-06-24T03:36:26;16.55;;;13.40;;
20982;SDS011;10650;51.528;6.748;2023-06-24T03:38:53;13.63;;;12.23;;
20982;SDS011;10650;51.528;6.748;2023-06-24T03:41:21;17.05;;;14.23;;
20982;SDS011;10650;51.528;6.748;2023-06-24T03:43:49;16.00;;;13.32;;
20982;SDS011;10650;51.528;6.748;2023-06-24T03:46:18;15.20;;;13.40;;
20982;SDS011;10650;51.528;6.748;2023-06-24T03:48:46;15.10;;;13.60;;
20982;SDS011;10650;51.528;6.748;2023-06-24T03:51:14;14.85;;;13.20;;
20982;SDS011;10650;51.528;6.748;2023-06-24T03:53:41;14.60;;;13.20;;
20982;SDS011;10650;51.528;6.748;2023-06-24T03:56:09;15.07;;;13.27;;
20982;SDS011;10650;51.528;6.748;2023-06-24T03:58:37;13.57;;;12.18;;
20982;SDS011;10650;51.528;6.748;2023-06-24T04:01:04;15.02;;;12.20;;
20982;SDS011;10650;51.528;6.748;2023-06-24T04:03:34;13.60;;;12.20;;
20982;SDS011;10650;51.528;6.748;2023-06-24T04:06:02;12.82;;;11.52;;
20982;SDS011;10650;51.528;6.748;2023-06-24T04:08:29;13.90;;;12.50;;
20982;SDS011;10650;51.528;6.748;2023-06-24T04:10:57;13.93;;;12.52;;
20982;SDS011;10650;51.528;6.748;2023-06-24T04:13:26;15.00;;;13.27;;
20982;SDS011;10650;51.528;6.748;2023-06-24T04:15:54;14.30;;;12.73;;
20982;SDS011;10650;51.528;6.748;2023-06-24T04:18:21;14.02;;;12.60;;
20982;SDS011;10650;51.528;6.748;2023-06-24T04:20:51;13.00;;;11.70;;
20982;SDS011;10650;51.528;6.748;2023-06-24T04:23:18;13.45;;;11.45;;
20982;SDS011;10650;51.528;6.748;2023-06-24T04:25:46;13.27;;;10.77;;
20982;SDS011;10650;51.528;6.748;2023-06-24T04:28:14;12.32;;;11.05;;
20982;SDS011;10650;51.528;6.748;2023-06-24T04:30:42;15.82;;;13.30;;
20982;SDS011;10650;51.528;6.748;2023-06-24T04:33:09;14.75;;;12.13;;
20982;SDS011;10650;51.528;6.748;2023-06-24T04:35:37;14.25;;;12.75;;
20982;SDS011;10650;51.528;6.748;2023-06-24T04:38:06;14.27;;;12.50;;
20982;SDS011;10650;51.528;6.748;2023-06-24T04:40:34;14.10;;;12.35;;
20982;SDS011;10650;51.528;6.748;2023-06-24T04:43:01;13.38;;;11.63;;
20982;SDS011;10650;51.528;6.748;2023-06-24T04:45:29;13.60;;;12.20;;
20982;SDS011;10650;51.528;6.748;2023-06-24T04:47:57;14.93;;;12.73;;
20982;SDS011;10650;51.528;6.748;2023-06-24T04:50:25;12.55;;;11.25;;
20982;SDS011;10650;51.528;6.748;2023-06-24T04:52:52;13.70;;;12.15;;
20982;SDS011;10650;51.528;6.748;2023-06-24T04:55:24;13.77;;;11.82;;
20982;SDS011;10650;51.528;6.748;2023-06-24T04:57:51;14.95;;;12.07;;
20982;SDS011;10650;51.528;6.748;2023-06-24T05:00:19;12.98;;;11.60;;
20982;SDS011;10650;51.528;6.748;2023-06-24T05:02:49;14.27;;;12.63;;
20982;SDS011;10650;51.528;6.748;2023-06-24T05:05:17;13.18;;;11.68;;
20982;SDS011;10650;51.528;6.748;2023-06-24T05:07:45;13.95;;;11.88;;
20982;SDS011;10650;51.528;6.748;2023-06-24T05:10:13;13.65;;;12.00;;
20982;SDS011;10650;51.528;6.748;2023-06-24T05:12:42;17.13;;;12.63;;
20982;SDS011;10650;51.528;6.748;2023-06-24T05:15:10;13.77;;;12.38;;
20982;SDS011;10650;51.528;6.748;2023-06-24T05:17:38;14.30;;;12.80;;
20982;SDS011;10650;51.528;6.748;2023-06-24T05:20:07;15.38;;;13.77;;
20982;SDS011;10650;51.528;6.748;2023-06-24T05:22:35;15.65;;;14.00;;
20982;SDS011;10650;51.528;6.748;2023-06-24T05:25:03;15.02;;;13.52;;
20982;SDS011;10650;51.528;6.748;2023-06-24T05:27:32;14.45;;;12.68;;
20982;SDS011;10650;51.528;6.748;2023-06-24T05:30:01;15.50;;;12.65;;
20982;SDS011;10650;51.528;6.748;2023-06-24T05:43:00;18.63;;;13.23;;
20982;SDS011;10650;51.528;6.748;2023-06-24T05:45:29;16.27;;;13.70;;
20982;SDS011;10650;51.528;6.748;2023-06-24T05:47:57;15.02;;;13.40;;
20982;SDS011;10650;51.528;6.748;2023-06-24T05:50:24;19.80;;;14.15;;
20982;SDS011;10650;51.528;6.748;2023-06-24T05:52:52;17.02;;;15.20;;
20982;SDS011;10650;51.528;6.748;2023-06-24T05:55:20;21.00;;;16.00;;
20982;SDS011;10650;51.528;6.748;2023-06-24T05:57:48;20.23;;;16.52;;
20982;SDS011;10650;51.528;6.748;2023-06-24T06:00:18;21.48;;;17.17;;
20982;SDS011;10650;51.528;6.748;2023-06-24T06:02:46;21.95;;;16.75;;
20982;SDS011;10650;51.528;6.748;2023-06-24T06:05:14;22.55;;;17.10;;
20982;SDS011;10650;51.528;6.748;2023-06-24T06:07:42;22.60;;;18.05;;
20982;SDS011;10650;51.528;6.748;2023-06-24T06:10:10;22.02;;;18.20;;
20982;SDS011;10650;51.528;6.748;2023-06-24T06:12:38;22.02;;;17.58;;
20982;SDS011;10650;51.528;6.748;2023-06-24T06:15:06;23.52;;;17.65;;
20982;SDS011;10650;51.528;6.748;2023-06-24T06:17:35;21.40;;;18.10;;
20982;SDS011;10650;51.528;6.748;2023-06-24T06:20:04;20.23;;;17.13;;
20982;SDS011;10650;51.528;6.748;2023-06-24T06:22:32;21.20;;;17.17;;
20982;SDS011;10650;51.528;6.748;2023-06-24T06:25:04;22.90;;;17.90;;
20982;SDS011;10650;51.528;6.748;2023-06-24T06:27:32;23.48;;;18.20;;
20982;SDS011;10650;51.528;6.748;2023-06-24T06:30:00;22.15;;;18.13;;
20982;SDS011;10650;51.528;6.748;2023-06-24T06:32:28;27.67;;;19.55;;
20982;SDS011;10650;51.528;6.748;2023-06-24T06:34:59;23.90;;;20.13;;
20982;SDS011;10650;51.528;6.748;2023-06-24T06:37:27;28.35;;;20.42;;
20982;SDS011;10650;51.528;6.748;2023-06-24T06:39:54;26.30;;;19.95;;
20982;SDS011;10650;51.528;6.748;2023-06-24T06:42:22;21.90;;;18.83;;
20982;SDS011;10650;51.528;6.748;2023-06-24T06:44:50;23.58;;;18.55;;
20982;SDS011;10650;51.528;6.748;2023-06-24T06:47:18;22.65;;;19.95;;
20982;SDS011;10650;51.528;6.748;2023-06-24T06:49:45;23.20;;;19.85;;
20982;SDS011;10650;51.528;6.748;2023-06-24T06:52:14;23.55;;;17.67;;
20982;SDS011;10650;51.528;6.748;2023-06-24T06:54:43;22.88;;;18.95;;
20982;SDS011;10650;51.528;6.748;2023-06-24T06:57:11;22.15;;;18.85;;
20982;SDS011;10650;51.528;6.748;2023-06-24T06:59:39;21.90;;;19.50;;
20982;SDS011;10650;51.528;6.748;2023-06-24T07:02:07;22.05;;;19.75;;
20982;SDS011;10650;51.528;6.748;2023-06-24T07:04:35;21.65;;;19.45;;
20982;SDS011;10650;51.528;6.748;2023-06-24T07:07:02;21.30;;;19.02;;
20982;SDS011;10650;51.528;6.748;2023-06-24T07:09:32;22.27;;;19.65;;
20982;SDS011;10650;51.528;6.748;2023-06-24T07:11:59;22.50;;;20.27;;
20982;SDS011;10650;51.528;6.748;2023-06-24T07:14:27;24.08;;;21.52;;
20982;SDS011;10650;51.528;6.748;2023-06-24T07:16:55;24.52;;;21.98;;
20982;SDS011;10650;51.528;6.748;2023-06-24T07:19:23;23.27;;;20.85;;
20982;SDS011;10650;51.528;6.748;2023-06-24T07:21:51;24.63;;;21.75;;
20982;SDS011;10650;51.528;6.748;2023-06-24T07:24:19;24.55;;;20.63;;
20982;SDS011;10650;51.528;6.748;2023-06-24T07:26:48;24.52;;;21.83;;
20982;SDS011;10650;51.528;6.748;2023-06-24T07:29:15;27.38;;;22.35;;
20982;SDS011;10650;51.528;6.748;2023-06-24T07:31:43;22.98;;;20.48;;
20982;SDS011;10650;51.528;6.748;2023-06-24T07:34:11;24.75;;;22.00;;
20982;SDS011;10650;51.528;6.748;2023-06-24T07:36:39;23.95;;;21.40;;
20982;SDS011;10650;51.528;6.748;2023-06-24T07:39:06;24.17;;;21.40;;
20982;SDS011;10650;51.528;6.748;2023-06-24T07:41:35;25.20;;;22.60;;
20982;SDS011;10650;51.528;6.748;2023-06-24T07:44:04;24.13;;;21.63;;
20982;SDS011;10650;51.528;6.748;2023-06-24T07:46:32;23.30;;;20.85;;
20982;SDS011;10650;51.528;6.748;2023-06-24T07:48:59;22.85;;;20.45;;
20982;SDS011;10650;51.528;6.748;2023-06-24T07:51:27;23.08;;;20.67;;
20982;SDS011;10650;51.528;6.748;2023-06-24T07:53:55;22.58;;;20.20;;
20982;SDS011;10650;51.528;6.748;2023-06-24T07:56:23;23.02;;;20.63;;
20982;SDS011;10650;51.528;6.748;2023-06-24T07:58:50;24.25;;;21.85;;
20982;SDS011;10650;51.528;6.748;2023-06-24T08:01:20;23.70;;;21.30;;
20982;SDS011;10650;51.528;6.748;2023-06-24T08:03:47;21.80;;;19.55;;
20982;SDS011;10650;51.528;6.748;2023-06-24T08:06:15;21.45;;;19.25;;
20982;SDS011;10650;51.528;6.748;2023-06-24T08:08:43;20.88;;;18.55;;
20982;SDS011;10650;51.528;6.748;2023-06-24T08:11:12;19.65;;;17.65;;
20982;SDS011;10650;51.528;6.748;2023-06-24T08:13:41;18.13;;;16.33;;
20982;SDS011;10650;51.528;6.748;2023-06-24T08:16:09;19.95;;;17.90;;
20982;SDS011;10650;51.528;6.748;2023-06-24T08:18:38;16.33;;;14.82;;
20982;SDS011;10650;51.528;6.748;2023-06-24T08:21:05;14.88;;;13.40;;
20982;SDS011;10650;51.528;6.748;2023-06-24T08:23:33;13.93;;;12.52;;
20982;SDS011;10650;51.528;6.748;2023-06-24T08:26:01;16.02;;;14.20;;
20982;SDS011;10650;51.528;6.748;2023-06-24T08:28:42;14.52;;;12.02;;
20982;SDS011;10650;51.528;6.748;2023-06-24T08:31:10;12.63;;;11.32;;
20982;SDS011;10650;51.528;6.748;2023-06-24T08:33:41;11.85;;;10.65;;
20982;SDS011;10650;51.528;6.748;2023-06-24T08:36:10;12.15;;;10.07;;
20982;SDS011;10650;51.528;6.748;2023-06-24T08:38:38;12.15;;;9.65;;
20982;SDS011;10650;51.528;6.748;2023-06-24T08:41:06;12.27;;;9.90;;
20982;SDS011;10650;51.528;6.748;2023-06-24T08:43:34;11.35;;;8.38;;
20982;SDS011;10650;51.528;6.748;2023-06-24T08:46:01;11.15;;;8.70;;
20982;SDS011;10650;51.528;6.748;2023-06-24T08:48:29;12.55;;;10.02;;
20982;SDS011;10650;51.528;6.748;2023-06-24T08:50:59;9.60;;;8.60;;
20982;SDS011;10650;51.528;6.748;2023-06-24T08:53:29;9.95;;;8.93;;
20982;SDS011;10650;51.528;6.748;2023-06-24T08:55:57;9.30;;;8.40;;
20982;SDS011;10650;51.528;6.748;2023-06-24T08:58:25;10.43;;;7.75;;
20982;SDS011;10650;51.528;6.748;2023-06-24T09:00:53;10.05;;;9.05;;
20982;SDS011;10650;51.528;6.748;2023-06-24T09:03:21;10.48;;;8.60;;
20982;SDS011;10650;51.528;6.748;2023-06-24T09:05:50;9.45;;;7.97;;
20982;SDS011;10650;51.528;6.748;2023-06-24T09:08:19;10.55;;;8.70;;
20982;SDS011;10650;51.528;6.748;2023-06-24T09:10:52;10.70;;;8.93;;
20982;SDS011;10650;51.528;6.748;2023-06-24T09:13:21;7.60;;;6.80;;
20982;SDS011;10650;51.528;6.748;2023-06-24T09:15:55;9.10;;;6.85;;
20982;SDS011;10650;51.528;6.748;2023-06-24T09:18:30;9.40;;;7.65;;
20982;SDS011;10650;51.528;6.748;2023-06-24T09:20:58;6.22;;;5.63;;
20982;SDS011;10650;51.528;6.748;2023-06-24T09:23:28;7.90;;;6.10;;
20982;SDS011;10650;51.528;6.748;2023-06-24T09:25:56;7.07;;;5.68;;
20982;SDS011;10650;51.528;6.748;2023-06-24T09:28:26;6.85;;;5.68;;
20982;SDS011;10650;51.528;6.748;2023-06-24T09:31:03;7.18;;;5.60;;
20982;SDS011;10650;51.528;6.748;2023-06-24T09:33:44;6.28;;;5.68;;
20982;SDS011;10650;51.528;6.748;2023-06-24T09:36:12;6.80;;;6.10;;
20982;SDS011;10650;51.528;6.748;2023-06-24T09:38:42;7.00;;;6.00;;
20982;SDS011;10650;51.528;6.748;2023-06-24T09:41:11;8.65;;;7.72;;
20982;SDS011;10650;51.528;6.748;2023-06-24T09:43:40;7.20;;;6.50;;
20982;SDS011;10650;51.528;6.748;2023-06-24T09:46:11;7.00;;;6.20;;
20982;SDS011;10650;51.528;6.748;2023-06-24T09:48:39;5.60;;;5.07;;
20982;SDS011;10650;51.528;6.748;2023-06-24T09:51:07;6.00;;;5.43;;
20982;SDS011;10650;51.528;6.748;2023-06-24T09:53:36;8.15;;;6.10;;
20982;SDS011;10650;51.528;6.748;2023-06-24T09:56:07;6.10;;;5.22;;
20982;SDS011;10650;51.528;6.748;2023-06-24T09:58:35;5.80;;;5.30;;
20982;SDS011;10650;51.528;6.748;2023-06-24T10:01:04;7.22;;;5.65;;
20982;SDS011;10650;51.528;6.748;2023-06-24T10:03:34;5.75;;;4.93;;
20982;SDS011;10650;51.528;6.748;2023-06-24T10:06:04;7.03;;;5.53;;
20982;SDS011;10650;51.528;6.748;2023-06-24T10:08:32;8.15;;;6.35;;
20982;SDS011;10650;51.528;6.748;2023-06-24T10:11:01;7.13;;;6.40;;
20982;SDS011;10650;51.528;6.748;2023-06-24T10:13:30;6.50;;;5.82;;
20982;SDS011;10650;51.528;6.748;2023-06-24T10:15:58;6.25;;;5.60;;
20982;SDS011;10650;51.528;6.748;2023-06-24T10:18:32;10.27;;;7.22;;
20982;SDS011;10650;51.528;6.748;2023-06-24T10:21:02;9.00;;;6.60;;
20982;SDS011;10650;51.528;6.748;2023-06-24T10:23:30;6.82;;;5.55;;
20982;SDS011;10650;51.528;6.748;2023-06-24T10:26:07;6.82;;;5.30;;
20982;SDS011;10650;51.528;6.748;2023-06-24T10:31:50;5.60;;;4.78;;
20982;SDS011;10650;51.528;6.748;2023-06-24T10:34:23;5.63;;;5.00;;
20982;SDS011;10650;51.528;6.748;2023-06-24T10:36:55;6.03;;;5.43;;
20982;SDS011;10650;51.528;6.748;2023-06-24T10:39:35;5.30;;;4.78;;
20982;SDS011;10650;51.528;6.748;2023-06-24T10:44:55;5.05;;;4.53;;
20982;SDS011;10650;51.528;6.748;2023-06-24T10:47:23;4.95;;;4.45;;
20982;SDS011;10650;51.528;6.748;2023-06-24T10:49:53;4.47;;;4.07;;
20982;SDS011;10650;51.528;6.748;2023-06-24T10:52:21;5.15;;;4.60;;
20982;SDS011;10650;51.528;6.748;2023-06-24T10:54:50;4.70;;;4.30;;
20982;SDS011;10650;51.528;6.748;2023-06-24T10:57:22;5.10;;;4.60;;
20982;SDS011;10650;51.528;6.748;2023-06-24T10:59:52;5.95;;;4.60;;
20982;SDS011;10650;51.528;6.748;2023-06-24T11:02:23;5.40;;;4.68;;
20982;SDS011;10650;51.528;6.748;2023-06-24T11:04:52;4.93;;;4.43;;
20982;SDS011;10650;51.528;6.748;2023-06-24T11:07:21;4.47;;;4.03;;
20982;SDS011;10650;51.528;6.748;2023-06-24T11:09:50;6.30;;;4.90;;
20982;SDS011;10650;51.528;6.748;2023-06-24T11:12:19;5.30;;;4.43;;
20982;SDS011;10650;51.528;6.748;2023-06-24T11:14:51;7.07;;;5.18;;
20982;SDS011;10650;51.528;6.748;2023-06-24T11:17:25;4.60;;;4.20;;
20982;SDS011;10650;51.528;6.748;2023-06-24T11:19:55;5.90;;;4.47;;
20982;SDS011;10650;51.528;6.748;2023-06-24T11:22:24;4.53;;;4.13;;
20982;SDS011;10650;51.528;6.748;2023-06-24T11:24:52;4.75;;;4.13;;
20982;SDS011;10650;51.528;6.748;2023-06-24T11:27:23;4.57;;;4.18;;
20982;SDS011;10650;51.528;6.748;2023-06-24T11:29:53;6.50;;;4.55;;
20982;SDS011;10650;51.528;6.748;2023-06-24T11:32:21;5.28;;;4.50;;
20982;SDS011;10650;51.528;6.748;2023-06-24T11:34:50;4.28;;;3.72;;
20982;SDS011;10650;51.528;6.748;2023-06-24T11:37:18;4.82;;;4.30;;
20982;SDS011;10650;51.528;6.748;2023-06-24T11:40:00;6.75;;;4.70;;
20982;SDS011;10650;51.528;6.748;2023-06-24T11:42:31;6.68;;;5.57;;
20982;SDS011;10650;51.528;6.748;2023-06-24T11:44:59;6.53;;;4.82;;
20982;SDS011;10650;51.528;6.748;2023-06-24T11:47:30;6.88;;;4.70;;
20982;SDS011;10650;51.528;6.748;2023-06-24T11:50:01;7.35;;;6.32;;
20982;SDS011;10650;51.528;6.748;2023-06-24T11:52:38;7.32;;;5.90;;
20982;SDS011;10650;51.528;6.748;2023-06-24T11:55:15;6.28;;;5.68;;
20982;SDS011;10650;51.528;6.748;2023-06-24T11:57:48;5.72;;;5.22;;
20982;SDS011;10650;51.528;6.748;2023-06-24T12:00:19;6.18;;;4.72;;
20982;SDS011;10650;51.528;6.748;2023-06-24T12:02:49;5.25;;;4.57;;
20982;SDS011;10650;51.528;6.748;2023-06-24T12:05:24;3.95;;;3.65;;
20982;SDS011;10650;51.528;6.748;2023-06-24T12:07:55;4.22;;;3.83;;
20982;SDS011;10650;51.528;6.748;2023-06-24T12:10:24;4.53;;;3.92;;
20982;SDS011;10650;51.528;6.748;2023-06-24T12:12:52;4.40;;;4.00;;
20982;SDS011;10650;51.528;6.748;2023-06-24T12:15:20;3.90;;;3.60;;
20982;SDS011;10650;51.528;6.748;2023-06-24T12:17:48;3.78;;;3.47;;
20982;SDS011;10650;51.528;6.748;2023-06-24T12:20:16;4.55;;;3.80;;
20982;SDS011;10650;51.528;6.748;2023-06-24T12:22:46;6.32;;;4.65;;
20982;SDS011;10650;51.528;6.748;2023-06-24T12:25:15;5.38;;;4.20;;
20982;SDS011;10650;51.528;6.748;2023-06-24T12:27:43;4.40;;;3.97;;
20982;SDS011;10650;51.528;6.748;2023-06-24T12:30:12;4.88;;;4.32;;
20982;SDS011;10650;51.528;6.748;2023-06-24T12:32:40;4.00;;;3.70;;
20982;SDS011;10650;51.528;6.748;2023-06-24T12:35:08;4.20;;;3.80;;
20982;SDS011;10650;51.528;6.748;2023-06-24T12:37:37;4.25;;;3.85;;
20982;SDS011;10650;51.528;6.748;2023-06-24T12:40:07;3.80;;;3.50;;
20982;SDS011;10650;51.528;6.748;2023-06-24T12:42:35;3.95;;;3.65;;
20982;SDS011;10650;51.528;6.748;2023-06-24T12:45:03;4.40;;;4.00;;
20982;SDS011;10650;51.528;6.748;2023-06-24T12:47:31;3.83;;;3.53;;
20982;SDS011;10650;51.528;6.748;2023-06-24T12:49:59;4.28;;;3.53;;
20982;SDS011;10650;51.528;6.748;2023-06-24T12:52:27;3.60;;;3.30;;
20982;SDS011;10650;51.528;6.748;2023-06-24T12:54:55;4.07;;;3.20;;
20982;SDS011;10650;51.528;6.748;2023-06-24T12:57:24;3.42;;;3.13;;
20982;SDS011;10650;51.528;6.748;2023-06-24T12:59:52;3.42;;;3.13;;
20982;SDS011;10650;51.528;6.748;2023-06-24T13:02:19;3.47;;;3.17;;
20982;SDS011;10650;51.528;6.748;2023-06-24T13:04:47;3.08;;;2.83;;
20982;SDS011;10650;51.528;6.748;2023-06-24T13:07:15;3.60;;;3.30;;
20982;SDS011;10650;51.528;6.748;2023-06-24T13:09:43;3.15;;;2.95;;
20982;SDS011;10650;51.528;6.748;2023-06-24T13:12:11;3.78;;;3.47;;
20982;SDS011;10650;51.528;6.748;2023-06-24T13:14:40;3.55;;;3.25;;
20982;SDS011;10650;51.528;6.748;2023-06-24T13:17:07;3.40;;;3.10;;
20982;SDS011;10650;51.528;6.748;2023-06-24T13:19:35;3.60;;;3.30;;
20982;SDS011;10650;51.528;6.748;2023-06-24T13:22:03;3.30;;;3.10;;
20982;SDS011;10650;51.528;6.748;2023-06-24T13:24:31;3.55;;;3.25;;
20982;SDS011;10650;51.528;6.748;2023-06-24T13:26:59;3.20;;;3.00;;
20982;SDS011;10650;51.528;6.748;2023-06-24T13:29:26;3.45;;;3.20;;
20982;SDS011;10650;51.528;6.748;2023-06-24T13:31:56;3.40;;;3.10;;
20982;SDS011;10650;51.528;6.748;2023-06-24T13:34:23;4.57;;;3.30;;
20982;SDS011;10650;51.528;6.748;2023-06-24T13:36:51;4.70;;;4.20;;
20982;SDS011;10650;51.528;6.748;2023-06-24T13:39:19;3.80;;;3.50;;
20982;SDS011;10650;51.528;6.748;2023-06-24T13:41:49;3.55;;;3.17;;
20982;SDS011;10650;51.528;6.748;2023-06-24T13:44:19;3.83;;;3.15;;
20982;SDS011;10650;51.528;6.748;2023-06-24T13:46:47;3.40;;;3.10;;
20982;SDS011;10650;51.528;6.748;2023-06-24T13:49:17;3.92;;;3.15;;
20982;SDS011;10650;51.528;6.748;2023-06-24T13:51:45;3.13;;;2.85;;
20982;SDS011;10650;51.528;6.748;2023-06-24T13:54:13;3.30;;;3.00;;
20982;SDS011;10650;51.528;6.748;2023-06-24T13:56:41;3.30;;;3.10;;
20982;SDS011;10650;51.528;6.748;2023-06-24T13:59:08;2.92;;;2.72;;
20982;SDS011;10650;51.528;6.748;2023-06-24T14:01:37;4.47;;;3.10;;
20982;SDS011;10650;51.528;6.748;2023-06-24T14:04:05;3.22;;;2.95;;
20982;SDS011;10650;51.528;6.748;2023-06-24T14:06:34;3.97;;;3.30;;
20982;SDS011;10650;51.528;6.748;2023-06-24T14:09:01;3.28;;;2.97;;
20982;SDS011;10650;51.528;6.748;2023-06-24T14:11:29;3.28;;;2.97;;
20982;SDS011;10650;51.528;6.748;2023-06-24T14:13:57;3.50;;;3.20;;
20982;SDS011;10650;51.528;6.748;2023-06-24T14:16:25;3.38;;;3.08;;
20982;SDS011;10650;51.528;6.748;2023-06-24T14:18:53;3.60;;;2.78;;
20982;SDS011;10650;51.528;6.748;2023-06-24T14:21:20;5.15;;;4.15;;
20982;SDS011;10650;51.528;6.748;2023-06-24T14:23:49;3.15;;;2.85;;
20982;SDS011;10650;51.528;6.748;2023-06-24T14:26:20;4.07;;;2.78;;
20982;SDS011;10650;51.528;6.748;2023-06-24T14:28:48;3.40;;;3.10;;
20982;SDS011;10650;51.528;6.748;2023-06-24T14:31:15;3.33;;;3.03;;
20982;SDS011;10650;51.528;6.748;2023-06-24T14:33:43;3.15;;;2.80;;
20982;SDS011;10650;51.528;6.748;2023-06-24T14:36:11;3.58;;;3.00;;
20982;SDS011;10650;51.528;6.748;2023-06-24T14:38:39;3.53;;;3.22;;
20982;SDS011;10650;51.528;6.748;2023-06-24T14:41:08;3.28;;;2.97;;
20982;SDS011;10650;51.528;6.748;2023-06-24T14:43:36;3.17;;;2.95;;
20982;SDS011;10650;51.528;6.748;2023-06-24T14:46:04;3.40;;;3.10;;
20982;SDS011;10650;51.528;6.748;2023-06-24T14:48:32;3.40;;;3.10;;
20982;SDS011;10650;51.528;6.748;2023-06-24T14:50:59;3.15;;;2.95;;
20982;SDS011;10650;51.528;6.748;2023-06-24T14:53:27;3.00;;;2.63;;
20982;SDS011;10650;51.528;6.748;2023-06-24T14:55:55;3.28;;;2.90;;
20982;SDS011;10650;51.528;6.748;2023-06-24T14:58:24;3.40;;;3.10;;
20982;SDS011;10650;51.528;6.748;2023-06-24T15:00:52;3.40;;;2.78;;